createdAt,value
2023-03-14T00:00:27.785Z,71.24
2023-03-14T00:03:14.875Z,70.72
2023-03-14T00:06:40.941Z,70.33
2023-03-14T00:09:19.792Z,71.52
2023-03-14T00:12:03.038Z,70.99
2023-03-14T00:14:33.175Z,70.06
2023-03-14T00:17:03.551Z,70.65
2023-03-14T00:19:37.815Z,70.62
2023-03-14T00:22:07.611Z,71.44
2023-03-14T00:24:34.539Z,70.57
2023-03-14T00:27:03.066Z,71.34
2023-03-14T00:29:32.565Z,71.51
2023-03-14T00:32:02.297Z,70.98
2023-03-14T00:34:39.162Z,71.18
2023-03-14T00:37:05.806Z,70.46
2023-03-14T00:39:38.727Z,69.95
2023-03-14T00:42:05.455Z,69.73
2023-03-14T00:44:37.927Z,70.05
2023-03-14T00:47:08.119Z,70.13
2023-03-14T00:49:38.037Z,69.55
2023-03-14T00:52:18.384Z,68.65
2023-03-14T00:54:45.506Z,68.53
2023-03-14T00:57:21.341Z,68.11
2023-03-14T00:59:48.323Z,66.96
2023-03-14T01:02:18.482Z,66.55
2023-03-14T01:04:47.733Z,65.87
2023-03-14T01:07:36.581Z,65.48
2023-03-14T01:10:10.916Z,64.95
2023-03-14T01:12:50.216Z,64.86
2023-03-14T01:15:25.274Z,65.09
2023-03-14T01:17:58.129Z,64.06
2023-03-14T01:20:24.966Z,63.84
2023-03-14T01:22:51.933Z,63.83
2023-03-14T01:25:19.400Z,63.61
2023-03-14T01:27:46.438Z,63.03
2023-03-14T01:30:19.226Z,63.57
2023-03-14T01:32:49.184Z,63.46
2023-03-14T01:35:22.965Z,62.93
2023-03-14T01:37:49.708Z,62.99
2023-03-14T01:40:19.495Z,63.09
2023-03-14T01:43:01.484Z,63.24
2023-03-14T01:45:52.648Z,62.96
2023-03-14T01:48:19.864Z,63.02
2023-03-14T01:50:46.855Z,63.28
2023-03-14T01:53:16.575Z,62.89
2023-03-14T01:55:43.480Z,62.53
2023-03-14T01:58:29.816Z,62.73
2023-03-14T02:01:08.333Z,62.25
2023-03-14T02:03:47.762Z,62.37
2023-03-14T02:06:19.000Z,61.79
2023-03-14T02:08:50.713Z,61.97
2023-03-14T02:11:19.498Z,62.55
2023-03-14T02:13:57.753Z,62.01
2023-03-14T02:16:24.915Z,62.05
2023-03-14T02:18:51.770Z,62.11
2023-03-14T02:21:23.246Z,62.04
2023-03-14T02:24:08.838Z,62.10
2023-03-14T02:26:53.507Z,61.62
2023-03-14T02:29:23.167Z,62.58
2023-03-14T02:31:52.278Z,62.56
2023-03-14T02:34:19.974Z,61.54
2023-03-14T02:36:47.647Z,62.51
2023-03-14T02:39:31.013Z,61.00
2023-03-14T02:41:57.700Z,59.56
2023-03-14T02:44:24.400Z,60.94
2023-03-14T02:47:03.911Z,59.55
2023-03-14T02:49:37.760Z,60.43
2023-03-14T02:52:17.609Z,60.03
2023-03-14T02:54:44.843Z,59.52
2023-03-14T02:57:12.656Z,60.38
2023-03-14T02:59:39.331Z,61.06
2023-03-14T03:02:06.160Z,60.94
2023-03-14T03:04:37.596Z,61.35
2023-03-14T03:07:10.006Z,60.72
2023-03-14T03:09:36.834Z,61.67
2023-03-14T03:12:16.569Z,61.57
2023-03-14T03:14:44.433Z,59.43
2023-03-14T03:17:15.629Z,60.84
2023-03-14T03:19:44.751Z,59.35
2023-03-14T03:22:11.491Z,59.56
2023-03-14T03:24:41.588Z,59.58
2023-03-14T03:27:10.913Z,61.87
2023-03-14T03:29:39.019Z,61.97
2023-03-14T03:32:05.837Z,59.92
2023-03-14T03:34:32.526Z,61.54
2023-03-14T03:37:05.480Z,61.85
2023-03-14T03:40:03.650Z,61.82
2023-03-14T03:42:32.442Z,59.39
2023-03-14T03:45:00.408Z,61.44
2023-03-14T03:47:31.892Z,61.20
2023-03-14T03:50:01.659Z,61.64
2023-03-14T03:52:28.586Z,61.31
2023-03-14T03:54:55.432Z,61.21
2023-03-14T03:57:31.366Z,59.91
2023-03-14T04:00:06.824Z,61.71
2023-03-14T04:02:34.009Z,60.85
2023-03-14T04:05:04.440Z,59.29
2023-03-14T04:07:33.439Z,61.04
2023-03-14T04:10:00.163Z,58.49
2023-03-14T04:12:40.821Z,60.14
2023-03-14T04:15:18.828Z,61.25
2023-03-14T04:17:45.571Z,57.37
2023-03-14T04:20:15.452Z,56.86
2023-03-14T04:22:45.097Z,57.58
2023-03-14T04:25:11.813Z,56.68
2023-03-14T04:27:42.006Z,56.99
2023-03-14T04:30:09.571Z,58.79
2023-03-14T04:32:36.370Z,58.91
2023-03-14T04:35:03.151Z,58.59
2023-03-14T04:37:29.965Z,62.03
2023-03-14T04:40:07.273Z,61.12
2023-03-14T04:42:38.848Z,60.83
2023-03-14T04:45:06.252Z,59.12
2023-03-14T04:47:34.338Z,58.13
2023-03-14T04:50:01.026Z,59.50
2023-03-14T04:52:35.972Z,59.73
2023-03-14T04:55:03.109Z,59.46
2023-03-14T04:57:33.196Z,59.65
2023-03-14T04:59:59.965Z,59.27
2023-03-14T05:02:33.120Z,59.32
2023-03-14T05:04:59.842Z,59.59
2023-03-14T05:07:29.596Z,60.02
2023-03-14T05:09:56.491Z,60.27
2023-03-14T05:12:28.306Z,59.36
2023-03-14T05:15:01.770Z,58.62
2023-03-14T05:17:34.551Z,58.50
2023-03-14T05:20:21.527Z,58.02
2023-03-14T05:22:48.894Z,59.00
2023-03-14T05:25:15.704Z,57.33
2023-03-14T05:27:52.385Z,57.39
2023-03-14T05:30:19.778Z,56.65
2023-03-14T05:32:46.552Z,55.57
2023-03-14T05:35:16.502Z,57.10
2023-03-14T05:37:43.270Z,55.24
2023-03-14T05:40:14.405Z,57.32
2023-03-14T05:42:41.171Z,57.98
2023-03-14T05:45:08.542Z,59.23
2023-03-14T05:47:35.361Z,59.60
2023-03-14T05:50:05.252Z,59.85
2023-03-14T05:52:38.572Z,57.04
2023-03-14T05:55:20.855Z,57.71
2023-03-14T06:00:37.369Z,56.54
2023-03-14T06:03:12.350Z,56.76
2023-03-14T06:05:39.677Z,57.16
2023-03-14T06:08:06.341Z,58.69
2023-03-14T06:10:41.674Z,59.47
2023-03-14T06:13:18.754Z,56.99
2023-03-14T06:15:49.784Z,56.42
2023-03-14T06:18:21.080Z,58.52
2023-03-14T06:20:56.488Z,57.68
2023-03-14T06:23:24.236Z,57.01
2023-03-14T06:26:00.334Z,56.97
2023-03-14T06:28:35.255Z,56.83
2023-03-14T06:31:04.047Z,57.27
2023-03-14T06:33:33.316Z,56.79
2023-03-14T06:36:01.638Z,57.80
2023-03-14T06:38:28.527Z,57.72
2023-03-14T06:41:17.876Z,57.51
2023-03-14T06:43:42.691Z,58.11
2023-03-14T06:46:09.643Z,57.26
2023-03-14T06:48:38.641Z,57.57
2023-03-14T06:51:11.479Z,58.36
2023-03-14T06:53:52.547Z,57.84
2023-03-14T06:56:22.074Z,57.99
2023-03-14T06:58:50.361Z,57.75
2023-03-14T07:01:29.034Z,56.26
2023-03-14T07:03:56.975Z,57.10
2023-03-14T07:06:24.046Z,56.91
2023-03-14T07:08:51.004Z,56.66
2023-03-14T07:11:17.903Z,57.27
2023-03-14T07:13:55.998Z,57.21
2023-03-14T07:16:22.849Z,57.75
2023-03-14T07:18:50.441Z,56.85
2023-03-14T07:21:17.134Z,56.85
2023-03-14T07:23:46.991Z,57.06
2023-03-14T07:26:13.690Z,57.28
2023-03-14T07:28:40.418Z,57.18
2023-03-14T07:31:13.494Z,57.51
2023-03-14T07:33:41.422Z,57.71
2023-03-14T07:36:08.887Z,57.55
2023-03-14T07:38:38.854Z,57.55
2023-03-14T07:41:09.322Z,57.22
2023-03-14T07:43:48.396Z,57.89
2023-03-14T07:46:19.006Z,58.15
2023-03-14T07:49:08.977Z,58.30
2023-03-14T07:51:40.358Z,58.48
2023-03-14T07:54:07.117Z,58.58
2023-03-14T07:56:43.663Z,58.49
2023-03-14T07:59:10.348Z,57.84
2023-03-14T08:01:37.183Z,58.03
2023-03-14T08:06:44.500Z,57.62
2023-03-14T08:09:16.625Z,57.72
2023-03-14T08:11:44.501Z,57.15
2023-03-14T08:14:12.198Z,56.87
2023-03-14T08:16:49.961Z,57.05
2023-03-14T08:19:17.617Z,57.20
2023-03-14T08:21:53.913Z,56.74
2023-03-14T08:24:21.619Z,56.42
2023-03-14T08:26:54.003Z,56.44
2023-03-14T08:29:21.026Z,56.48
2023-03-14T08:32:03.954Z,56.80
2023-03-14T08:34:31.237Z,56.87
2023-03-14T08:36:57.916Z,57.51
2023-03-14T08:39:41.487Z,56.96
2023-03-14T08:42:17.804Z,57.45
2023-03-14T08:44:45.074Z,57.56
2023-03-14T08:47:20.913Z,57.24
2023-03-14T08:49:54.827Z,58.08
2023-03-14T08:52:34.343Z,58.14
2023-03-14T08:55:02.232Z,57.74
2023-03-14T08:57:29.164Z,58.22
2023-03-14T09:00:01.745Z,58.18
2023-03-14T09:02:31.666Z,58.28
2023-03-14T09:04:59.011Z,57.62
2023-03-14T09:07:38.854Z,57.93
2023-03-14T09:10:20.711Z,57.81
2023-03-14T09:12:58.171Z,57.10
2023-03-14T09:15:36.922Z,57.12
2023-03-14T09:18:26.866Z,57.30
2023-03-14T09:20:55.576Z,57.38
2023-03-14T09:23:32.860Z,57.25
2023-03-14T09:26:11.820Z,56.74
2023-03-14T09:29:12.052Z,56.73
2023-03-14T09:32:10.691Z,57.31
2023-03-14T09:34:40.329Z,57.04
2023-03-14T09:37:16.547Z,57.20
2023-03-14T09:40:01.227Z,57.31
2023-03-14T09:42:45.448Z,57.20
2023-03-14T09:46:06.592Z,56.57
2023-03-14T09:48:48.213Z,55.92
2023-03-14T09:51:31.012Z,55.72
2023-03-14T09:54:03.597Z,55.26
2023-03-14T09:56:42.145Z,54.98
2023-03-14T09:59:14.659Z,54.95
2023-03-14T10:01:41.911Z,54.25
2023-03-14T10:04:15.730Z,54.43
2023-03-14T10:06:49.588Z,54.64
2023-03-14T10:09:28.789Z,54.49
2023-03-14T10:12:09.040Z,54.31
2023-03-14T10:14:45.395Z,54.08
2023-03-14T10:17:40.616Z,53.50
2023-03-14T10:20:33.631Z,53.38
2023-03-14T10:23:29.697Z,53.78
2023-03-14T10:26:06.935Z,54.08
2023-03-14T10:28:43.558Z,54.38
2023-03-14T10:31:16.560Z,54.31
2023-03-14T10:33:59.541Z,54.29
2023-03-14T10:36:30.510Z,55.16
2023-03-14T10:39:45.536Z,55.21
2023-03-14T10:42:48.083Z,54.73
2023-03-14T10:45:38.449Z,55.13
2023-03-14T10:48:28.513Z,54.74
2023-03-14T10:51:38.384Z,55.12
2023-03-14T10:54:32.368Z,55.42
2023-03-14T10:57:05.356Z,55.57
2023-03-14T10:59:59.842Z,55.24
2023-03-14T11:03:00.191Z,54.81
2023-03-14T11:05:49.275Z,54.66
2023-03-14T11:08:29.123Z,55.25
2023-03-14T11:11:26.081Z,54.11
2023-03-14T11:14:19.421Z,53.55
2023-03-14T11:17:31.434Z,53.41
2023-03-14T11:20:06.704Z,53.16
2023-03-14T11:22:44.848Z,53.33
2023-03-14T11:25:41.817Z,53.47
2023-03-14T11:28:30.064Z,53.20
2023-03-14T11:31:41.766Z,53.58
2023-03-14T11:34:32.826Z,54.62
2023-03-14T11:37:24.534Z,54.55
2023-03-14T11:40:32.869Z,54.79
2023-03-14T11:43:08.341Z,55.65
2023-03-14T11:45:51.176Z,54.80
2023-03-14T11:49:06.352Z,54.46
2023-03-14T11:51:52.174Z,55.49
2023-03-14T11:55:04.005Z,54.94
2023-03-14T11:57:32.039Z,55.79
2023-03-14T12:00:14.200Z,54.91
2023-03-14T12:03:15.535Z,55.49
2023-03-14T12:06:16.882Z,55.76
2023-03-14T12:09:01.865Z,56.01
2023-03-14T12:11:46.227Z,55.52
2023-03-14T12:14:42.050Z,55.31
2023-03-14T12:17:20.746Z,55.09
2023-03-14T12:19:48.505Z,55.01
2023-03-14T12:22:42.564Z,54.97
2023-03-14T12:25:26.875Z,54.84
2023-03-14T12:28:09.331Z,55.09
2023-03-14T12:30:56.749Z,55.53
2023-03-14T12:33:31.820Z,56.07
2023-03-14T12:36:40.413Z,56.44
2023-03-14T12:39:26.319Z,56.57
2023-03-14T12:42:08.192Z,56.97
2023-03-14T12:44:46.695Z,56.58
2023-03-14T12:47:20.070Z,56.99
2023-03-14T12:49:56.363Z,57.12
2023-03-14T12:52:49.529Z,57.31
2023-03-14T12:55:40.033Z,57.78
2023-03-14T12:58:30.870Z,58.13
2023-03-14T13:01:05.815Z,57.31
2023-03-14T13:03:56.832Z,56.62
2023-03-14T13:07:03.692Z,57.15
2023-03-14T13:09:36.699Z,58.17
2023-03-14T13:12:28.896Z,57.79
2023-03-14T13:15:15.111Z,58.79
2023-03-14T13:17:47.919Z,57.30
2023-03-14T13:20:25.636Z,57.65
2023-03-14T13:22:56.071Z,56.69
2023-03-14T13:25:23.716Z,57.13
2023-03-14T13:28:04.356Z,57.52
2023-03-14T13:31:07.393Z,58.09
2023-03-14T13:33:35.556Z,57.17
2023-03-14T13:36:06.637Z,58.34
2023-03-14T13:38:37.438Z,60.54
2023-03-14T13:41:13.726Z,59.14
2023-03-14T13:43:42.678Z,58.91
2023-03-14T13:46:22.666Z,58.57
2023-03-14T13:49:13.303Z,60.32
2023-03-14T13:51:50.741Z,59.72
2023-03-14T13:54:23.594Z,59.41
2023-03-14T13:57:34.459Z,59.48
2023-03-14T14:00:23.465Z,60.79
2023-03-14T14:02:50.922Z,61.31
2023-03-14T14:05:29.053Z,61.72
2023-03-14T14:07:57.194Z,61.12
2023-03-14T14:10:26.810Z,61.44
2023-03-14T14:13:05.697Z,61.41
2023-03-14T14:15:43.874Z,61.35
2023-03-14T14:18:22.254Z,60.77
2023-03-14T14:20:49.545Z,61.86
2023-03-14T14:23:20.591Z,61.55
2023-03-14T14:26:14.114Z,59.89
2023-03-14T14:28:44.631Z,61.86
2023-03-14T14:31:33.075Z,61.18
2023-03-14T14:34:18.427Z,62.00
2023-03-14T14:36:55.133Z,62.62
2023-03-14T14:39:36.866Z,62.12
2023-03-14T14:42:14.439Z,62.29
2023-03-14T14:44:43.395Z,62.61
2023-03-14T14:47:19.349Z,61.52
2023-03-14T14:49:47.759Z,62.79
2023-03-14T14:52:37.864Z,62.62
2023-03-14T14:55:12.817Z,62.03
2023-03-14T14:57:54.100Z,61.40
2023-03-14T15:00:32.747Z,62.69
2023-03-14T15:03:06.098Z,61.29
2023-03-14T15:05:37.276Z,62.11
2023-03-14T15:08:12.174Z,62.13
2023-03-14T15:10:51.645Z,63.05
2023-03-14T15:13:28.152Z,63.44
2023-03-14T15:15:56.952Z,62.78
2023-03-14T15:18:35.711Z,62.52
2023-03-14T15:21:05.497Z,61.58
2023-03-14T15:23:42.556Z,61.15
2023-03-14T15:26:23.935Z,60.61
2023-03-14T15:28:53.154Z,60.89
2023-03-14T15:31:23.698Z,59.68
2023-03-14T15:33:51.278Z,60.22
2023-03-14T15:36:55.450Z,60.10
2023-03-14T15:39:24.946Z,60.26
2023-03-14T15:41:51.490Z,59.71
2023-03-14T15:44:18.221Z,59.42
2023-03-14T15:46:52.266Z,59.03
2023-03-14T15:49:18.869Z,58.80
2023-03-14T15:51:48.669Z,58.91
2023-03-14T15:54:15.301Z,58.86
2023-03-14T15:56:42.042Z,59.73
2023-03-14T15:59:12.022Z,60.16
2023-03-14T16:01:49.650Z,60.64
2023-03-14T16:04:16.869Z,60.83
2023-03-14T16:06:51.070Z,60.70
2023-03-14T16:09:20.044Z,60.55
2023-03-14T16:11:59.399Z,60.17
2023-03-14T16:14:26.286Z,60.29
2023-03-14T16:16:54.330Z,59.94
2023-03-14T16:19:20.924Z,60.08
2023-03-14T16:22:00.287Z,60.12
2023-03-14T16:24:35.882Z,60.69
2023-03-14T16:27:02.974Z,60.78
2023-03-14T16:29:33.054Z,60.03
2023-03-14T16:31:59.713Z,60.19
2023-03-14T16:34:31.271Z,60.12
2023-03-14T16:37:06.635Z,60.81
2023-03-14T16:39:55.886Z,61.11
2023-03-14T16:42:29.907Z,61.27
2023-03-14T16:45:02.566Z,61.42
2023-03-14T16:47:31.175Z,61.37
2023-03-14T16:50:05.586Z,61.85
2023-03-14T16:52:32.394Z,62.02
2023-03-14T16:55:14.363Z,61.64
2023-03-14T16:57:43.434Z,61.58
2023-03-14T17:03:21.492Z,61.65
2023-03-14T17:05:50.459Z,61.39
2023-03-14T17:08:30.888Z,61.85
2023-03-14T17:10:59.817Z,62.12
2023-03-14T17:13:36.649Z,62.35
2023-03-14T17:16:05.703Z,62.05
2023-03-14T17:18:35.235Z,62.01
2023-03-14T17:21:02.152Z,62.56
2023-03-14T17:23:33.652Z,62.27
2023-03-14T17:26:00.575Z,62.55
2023-03-14T17:28:29.354Z,62.45
2023-03-14T17:31:32.399Z,63.04
2023-03-14T17:33:59.650Z,63.06
2023-03-14T17:36:30.425Z,62.61
2023-03-14T17:39:00.028Z,62.88
2023-03-14T17:41:31.732Z,62.71
2023-03-14T17:44:04.064Z,62.79
2023-03-14T17:46:33.621Z,62.93
2023-03-14T17:49:06.120Z,63.48
2023-03-14T17:51:32.945Z,62.87
2023-03-14T17:54:26.209Z,63.08
2023-03-14T17:57:05.804Z,62.79
2023-03-14T17:59:39.297Z,62.67
2023-03-14T18:02:10.061Z,62.94
2023-03-14T18:04:36.946Z,62.92
2023-03-14T18:07:04.841Z,63.17
2023-03-14T18:09:33.654Z,62.92
2023-03-14T18:12:08.069Z,63.01
2023-03-14T18:14:47.086Z,62.94
2023-03-14T18:17:15.350Z,63.16
2023-03-14T18:19:48.721Z,62.61
2023-03-14T18:22:16.315Z,63.09
2023-03-14T18:24:43.239Z,63.37
2023-03-14T18:27:16.280Z,63.53
2023-03-14T18:29:48.705Z,63.32
2023-03-14T18:32:18.614Z,63.44
2023-03-14T18:34:45.356Z,63.78
2023-03-14T18:37:12.911Z,63.66
2023-03-14T18:39:42.918Z,63.51
2023-03-14T18:42:12.341Z,64.12
2023-03-14T18:44:42.250Z,63.79
2023-03-14T18:47:10.207Z,63.77
2023-03-14T18:49:37.004Z,63.52
2023-03-14T18:52:11.338Z,63.71
2023-03-14T18:54:41.279Z,63.61
2023-03-14T18:57:08.453Z,63.06
2023-03-14T18:59:35.065Z,63.54
2023-03-14T19:02:01.890Z,63.32
2023-03-14T19:04:32.033Z,63.46
2023-03-14T19:06:59.711Z,63.21
2023-03-14T19:09:32.923Z,63.56
2023-03-14T19:12:03.688Z,63.03
2023-03-14T19:14:36.167Z,63.23
2023-03-14T19:17:02.920Z,63.59
2023-03-14T19:19:29.611Z,63.73
2023-03-14T19:21:59.978Z,64.72
2023-03-14T19:24:26.708Z,65.85
2023-03-14T19:26:59.515Z,67.63
2023-03-14T19:29:26.400Z,67.35
2023-03-14T19:31:54.226Z,68.43
2023-03-14T19:34:28.297Z,69.80
2023-03-14T19:37:11.950Z,69.20
2023-03-14T19:39:42.839Z,70.05
2023-03-14T19:42:10.960Z,69.81
2023-03-14T19:44:38.431Z,71.15
2023-03-14T19:47:09.707Z,71.45
2023-03-14T19:49:51.281Z,70.93
2023-03-14T19:52:21.033Z,71.50
2023-03-14T19:54:53.962Z,72.39
2023-03-14T19:57:27.631Z,72.30
2023-03-14T19:59:55.057Z,72.07
2023-03-14T20:02:22.768Z,72.71
2023-03-14T20:04:58.097Z,72.23
2023-03-14T20:07:30.829Z,71.79
2023-03-14T20:09:59.446Z,72.41
2023-03-14T20:12:49.252Z,72.10
2023-03-14T20:15:20.696Z,72.25
2023-03-14T20:17:49.220Z,73.10
2023-03-14T20:20:16.451Z,74.88
2023-03-14T20:22:48.606Z,76.59
2023-03-14T20:25:25.330Z,77.39
2023-03-14T20:27:53.871Z,77.16
2023-03-14T20:30:27.406Z,79.54
2023-03-14T20:32:55.385Z,79.46
2023-03-14T20:35:28.592Z,79.07
2023-03-14T20:37:58.417Z,78.71
2023-03-14T20:40:28.799Z,79.32
2023-03-14T20:42:59.985Z,79.06
2023-03-14T20:45:29.659Z,79.88
2023-03-14T20:47:58.148Z,79.83
2023-03-14T20:50:50.033Z,80.21
2023-03-14T20:53:18.108Z,80.52
2023-03-14T20:55:44.878Z,80.75
2023-03-14T20:58:15.650Z,81.73
2023-03-14T21:00:51.021Z,82.46
2023-03-14T21:03:19.671Z,82.04
2023-03-14T21:06:04.383Z,81.64
2023-03-14T21:08:35.002Z,81.30
2023-03-14T21:11:03.691Z,81.51
2023-03-14T21:13:34.183Z,81.44
2023-03-14T21:16:03.379Z,81.76
2023-03-14T21:18:38.035Z,82.13
2023-03-14T21:21:10.952Z,82.43
2023-03-14T21:23:54.688Z,82.03
2023-03-14T21:26:41.280Z,82.11
2023-03-14T21:32:08.364Z,81.72
2023-03-14T21:34:34.946Z,82.11
2023-03-14T21:37:11.585Z,82.10
2023-03-14T21:39:59.230Z,81.59
2023-03-14T21:42:32.095Z,81.87
2023-03-14T21:44:58.645Z,82.32
2023-03-14T21:47:25.201Z,82.33
2023-03-14T21:49:58.307Z,82.98
2023-03-14T21:55:17.609Z,82.80
2023-03-14T21:57:51.507Z,82.74
2023-03-14T22:00:21.514Z,82.58
2023-03-14T22:03:12.867Z,82.83
2023-03-14T22:05:45.104Z,83.19
2023-03-14T22:10:56.791Z,84.03
2023-03-14T22:13:25.829Z,83.57
2023-03-14T22:15:55.192Z,83.65
2023-03-14T22:18:22.053Z,83.01
2023-03-14T22:20:51.313Z,83.16
2023-03-14T22:23:18.922Z,83.39
2023-03-14T22:25:49.467Z,83.80
2023-03-14T22:28:16.194Z,84.10
2023-03-14T22:31:22.688Z,84.29
2023-03-14T22:36:31.262Z,84.44
2023-03-14T22:38:58.441Z,83.84
2023-03-14T22:41:30.921Z,84.24
2023-03-14T22:46:47.326Z,83.56
2023-03-14T22:49:17.649Z,83.66
2023-03-14T22:51:55.555Z,83.49
2023-03-14T22:54:22.386Z,84.25
2023-03-14T22:56:52.047Z,84.44
2023-03-14T22:59:21.718Z,84.51
2023-03-14T23:01:51.504Z,83.20
2023-03-14T23:04:18.107Z,83.12
2023-03-14T23:06:49.953Z,82.48
2023-03-14T23:09:22.446Z,82.92
2023-03-14T23:11:49.035Z,82.66
2023-03-14T23:14:15.625Z,83.23
2023-03-14T23:16:44.898Z,83.20
2023-03-14T23:19:14.844Z,83.29
2023-03-14T23:21:41.510Z,83.19
2023-03-14T23:24:08.524Z,82.82
2023-03-14T23:26:46.132Z,82.72
2023-03-14T23:29:15.954Z,82.87
2023-03-14T23:31:45.635Z,83.09
2023-03-14T23:34:23.101Z,83.23
2023-03-14T23:36:49.580Z,82.95
2023-03-14T23:39:22.011Z,83.09
2023-03-14T23:41:49.128Z,82.76
2023-03-14T23:44:15.669Z,83.17
2023-03-14T23:46:45.165Z,82.82
2023-03-14T23:49:15.089Z,82.91
2023-03-14T23:51:54.845Z,82.94
2023-03-14T23:54:21.533Z,82.71
2023-03-14T23:56:48.157Z,83.11
2023-03-14T23:59:20.879Z,83.21
